createdAt,value
2017-06-24T00:00:31.568Z,0
2017-06-24T00:01:31.877Z,0
2017-06-24T00:02:31.903Z,0
2017-06-24T00:03:32.252Z,0
2017-06-24T00:04:31.912Z,0
2017-06-24T00:05:31.988Z,0
2017-06-24T00:06:31.708Z,0
2017-06-24T00:07:32.373Z,0
2017-06-24T00:08:32.095Z,0
2017-06-24T00:09:32.687Z,0
2017-06-24T00:10:32.481Z,0
2017-06-24T00:11:32.498Z,0
2017-06-24T00:12:32.527Z,0
2017-06-24T00:13:32.540Z,0
2017-06-24T00:14:32.883Z,0
2017-06-24T00:15:32.625Z,0
2017-06-24T00:16:32.321Z,0
2017-06-24T00:17:32.366Z,0
2017-06-24T00:18:32.391Z,0
2017-06-24T00:19:32.988Z,0
2017-06-24T00:20:32.149Z,0
2017-06-24T00:21:32.801Z,0
2017-06-24T00:22:32.510Z,0
2017-06-24T00:23:32.227Z,0
2017-06-24T00:24:32.511Z,0
2017-06-24T00:25:32.937Z,0
2017-06-24T00:26:32.634Z,0
2017-06-24T00:27:32.659Z,0
2017-06-24T00:28:33.027Z,0
2017-06-24T00:29:32.700Z,0
2017-06-24T00:30:32.758Z,0
2017-06-24T00:31:32.785Z,0
2017-06-24T00:32:32.823Z,0
2017-06-24T00:33:33.151Z,0
2017-06-24T00:34:33.127Z,0
2017-06-24T00:35:32.909Z,0
2017-06-24T00:36:33.253Z,0
2017-06-24T00:37:32.983Z,0
2017-06-24T00:38:32.692Z,0
2017-06-24T00:39:33.583Z,0
2017-06-24T00:40:33.063Z,0
2017-06-24T00:41:33.410Z,0
2017-06-24T00:42:33.439Z,0
2017-06-24T00:43:33.156Z,0
2017-06-24T00:44:33.769Z,0
2017-06-24T00:45:33.218Z,0
2017-06-24T00:46:33.242Z,0
2017-06-24T00:47:32.963Z,0
2017-06-24T00:48:33.613Z,0
2017-06-24T00:49:33.326Z,0
2017-06-24T00:50:33.695Z,0
2017-06-24T00:51:33.716Z,0
2017-06-24T00:52:33.744Z,0
2017-06-24T00:53:33.778Z,0
2017-06-24T00:54:34.110Z,0
2017-06-24T00:55:33.522Z,0
2017-06-24T00:56:33.869Z,0
2017-06-24T00:57:33.571Z,0
2017-06-24T00:58:33.593Z,0
2017-06-24T00:59:33.889Z,0
2017-06-24T01:00:33.985Z,0
2017-06-24T01:01:33.701Z,0
2017-06-24T01:02:34.038Z,0
2017-06-24T01:03:33.452Z,0
2017-06-24T01:04:34.409Z,0
2017-06-24T01:05:34.126Z,0
2017-06-24T01:06:32.914Z,0
2017-06-24T01:07:33.871Z,0
2017-06-24T01:08:34.213Z,0
2017-06-24T01:09:33.002Z,0
2017-06-24T01:10:34.218Z,0
2017-06-24T01:11:33.995Z,0
2017-06-24T01:12:34.339Z,0
2017-06-24T01:13:34.060Z,0
2017-06-24T01:14:33.773Z,0
2017-06-24T01:15:34.407Z,0
2017-06-24T01:16:34.474Z,0
2017-06-24T01:17:33.861Z,0
2017-06-24T01:18:33.897Z,0
2017-06-24T01:19:34.229Z,0
2017-06-24T01:20:34.530Z,0
2017-06-24T01:21:34.342Z,0
2017-06-24T01:22:34.636Z,0
2017-06-24T01:23:34.669Z,0
2017-06-24T01:24:34.697Z,0
2017-06-24T01:25:34.730Z,0
2017-06-24T01:26:34.452Z,0
2017-06-24T01:27:34.163Z,0
2017-06-24T01:28:34.821Z,0
2017-06-24T01:29:34.543Z,0
2017-06-24T01:30:35.181Z,0
2017-06-24T01:31:34.604Z,0
2017-06-24T01:32:34.636Z,0
2017-06-24T01:33:34.679Z,0
2017-06-24T01:34:35.011Z,0
2017-06-24T01:35:34.671Z,0
2017-06-24T01:36:34.751Z,0
2017-06-24T01:37:34.777Z,0
2017-06-24T01:38:34.822Z,0
2017-06-24T01:39:34.850Z,0
2017-06-24T01:40:34.822Z,0
2017-06-24T01:41:34.901Z,0
2017-06-24T01:42:34.621Z,0
2017-06-24T01:43:35.281Z,0
2017-06-24T01:44:35.301Z,0
2017-06-24T01:45:34.982Z,0
2017-06-24T01:46:35.060Z,0
2017-06-24T01:47:35.081Z,0
2017-06-24T01:48:34.829Z,0
2017-06-24T01:49:34.829Z,0
2017-06-24T01:50:35.470Z,0
2017-06-24T01:51:35.199Z,0
2017-06-24T01:52:35.221Z,0
2017-06-24T01:53:35.274Z,0
2017-06-24T01:54:35.290Z,0
2017-06-24T01:55:35.915Z,0
2017-06-24T01:56:34.736Z,0
2017-06-24T01:57:35.381Z,0
2017-06-24T01:58:35.413Z,0
2017-06-24T01:59:35.450Z,0
2017-06-24T02:00:35.743Z,0
2017-06-24T02:01:35.484Z,0
2017-06-24T02:02:35.217Z,0
2017-06-24T02:03:35.574Z,0
2017-06-24T02:04:35.278Z,0
2017-06-24T02:05:35.607Z,0
2017-06-24T02:06:35.992Z,0
2017-06-24T02:07:36.008Z,0
2017-06-24T02:08:35.719Z,0
2017-06-24T02:09:35.747Z,0
2017-06-24T02:10:36.097Z,0
2017-06-24T02:11:36.117Z,0
2017-06-24T02:12:35.833Z,0
2017-06-24T02:13:36.183Z,0
2017-06-24T02:14:35.901Z,0
2017-06-24T02:15:36.496Z,0
2017-06-24T02:16:35.960Z,0
2017-06-24T02:17:35.985Z,0
2017-06-24T02:18:36.324Z,0
2017-06-24T02:19:36.046Z,0
2017-06-24T02:20:36.700Z,0
2017-06-24T02:21:36.117Z,0
2017-06-24T02:22:36.132Z,0
2017-06-24T02:23:36.482Z,0
2017-06-24T02:24:35.903Z,0
2017-06-24T02:25:36.527Z,0
2017-06-24T02:26:36.572Z,0
2017-06-24T02:27:36.289Z,0
2017-06-24T02:28:36.631Z,0
2017-06-24T02:29:36.671Z,0
2017-06-24T02:30:36.308Z,0
2017-06-24T02:31:36.738Z,0
2017-06-24T02:32:36.474Z,0
2017-06-24T02:33:36.467Z,0
2017-06-24T02:34:36.499Z,0
2017-06-24T02:35:36.776Z,0
2017-06-24T02:36:36.249Z,0
2017-06-24T02:37:36.278Z,0
2017-06-24T02:38:36.931Z,0
2017-06-24T02:39:36.647Z,0
2017-06-24T02:40:36.933Z,0
2017-06-24T02:41:37.025Z,0
2017-06-24T02:42:36.750Z,0
2017-06-24T02:43:36.776Z,0
2017-06-24T02:44:37.112Z,0
2017-06-24T02:45:36.513Z,0
2017-06-24T02:46:36.869Z,0
2017-06-24T02:47:36.598Z,0
2017-06-24T02:48:36.931Z,0
2017-06-24T02:49:36.948Z,0
2017-06-24T02:50:36.918Z,0
2017-06-24T02:51:37.005Z,0
2017-06-24T02:52:37.359Z,0
2017-06-24T02:53:37.068Z,0
2017-06-24T02:54:36.779Z,0
2017-06-24T02:55:36.816Z,0
2017-06-24T02:56:37.178Z,0
2017-06-24T02:57:37.514Z,0
2017-06-24T02:58:37.222Z,0
2017-06-24T02:59:37.252Z,0
2017-06-24T03:00:37.573Z,0
2017-06-24T03:01:37.020Z,0
2017-06-24T03:02:37.038Z,0
2017-06-24T03:03:37.064Z,0
2017-06-24T03:04:37.417Z,0
2017-06-24T03:05:37.687Z,0
2017-06-24T03:06:37.458Z,0
2017-06-24T03:07:37.498Z,0
2017-06-24T03:08:37.204Z,0
2017-06-24T03:09:37.576Z,0
2017-06-24T03:10:37.887Z,0
2017-06-24T03:11:37.926Z,0
2017-06-24T03:12:37.642Z,0
2017-06-24T03:13:37.680Z,0
2017-06-24T03:14:37.701Z,0
2017-06-24T03:15:37.984Z,0
2017-06-24T03:16:37.451Z,0
2017-06-24T03:17:37.495Z,0
2017-06-24T03:18:38.148Z,0
2017-06-24T03:19:38.184Z,0
2017-06-24T03:20:37.254Z,0
2017-06-24T03:21:38.523Z,0
2017-06-24T03:22:38.259Z,0
2017-06-24T03:23:38.301Z,0
2017-06-24T03:24:38.317Z,0
2017-06-24T03:25:37.726Z,0
2017-06-24T03:26:38.333Z,0
2017-06-24T03:27:37.785Z,0
2017-06-24T03:28:38.431Z,0
2017-06-24T03:29:37.831Z,0
2017-06-24T03:30:38.198Z,0
2017-06-24T03:31:38.502Z,0
2017-06-24T03:32:38.247Z,0
2017-06-24T03:33:38.288Z,0
2017-06-24T03:34:38.608Z,0
2017-06-24T03:35:38.648Z,0
2017-06-24T03:36:38.975Z,0
2017-06-24T03:37:38.700Z,0
2017-06-24T03:38:38.720Z,0
2017-06-24T03:39:38.759Z,0
2017-06-24T03:40:38.818Z,0
2017-06-24T03:41:38.766Z,0
2017-06-24T03:42:38.863Z,0
2017-06-24T03:43:38.888Z,0
2017-06-24T03:44:38.921Z,0
2017-06-24T03:45:38.945Z,0
2017-06-24T03:46:38.920Z,0
2017-06-24T03:47:38.700Z,0
2017-06-24T03:48:38.729Z,0
2017-06-24T03:49:38.750Z,0
2017-06-24T03:50:39.102Z,0
2017-06-24T03:51:39.091Z,0
2017-06-24T03:52:39.153Z,0
2017-06-24T03:53:38.900Z,0
2017-06-24T03:54:39.221Z,0
2017-06-24T03:55:38.910Z,0
2017-06-24T03:56:39.574Z,0
2017-06-24T03:57:38.999Z,0
2017-06-24T03:58:39.328Z,0
2017-06-24T03:59:39.370Z,0
2017-06-24T04:00:39.098Z,0
2017-06-24T04:01:39.722Z,0
2017-06-24T04:02:38.837Z,0
2017-06-24T04:03:39.200Z,0
2017-06-24T04:04:39.209Z,0
2017-06-24T04:05:38.610Z,0
2017-06-24T04:06:39.879Z,0
2017-06-24T04:07:38.671Z,0
2017-06-24T04:08:39.637Z,0
2017-06-24T04:09:38.726Z,0
2017-06-24T04:10:39.692Z,0
2017-06-24T04:11:40.027Z,0
2017-06-24T04:12:39.751Z,0
2017-06-24T04:13:39.792Z,0
2017-06-24T04:14:39.186Z,0
2017-06-24T04:15:39.851Z,0
2017-06-24T04:16:40.171Z,0
2017-06-24T04:17:39.600Z,0
2017-06-24T04:18:39.941Z,0
2017-06-24T04:19:39.338Z,0
2017-06-24T04:20:39.683Z,0
2017-06-24T04:21:39.963Z,0
2017-06-24T04:22:40.052Z,0
2017-06-24T04:23:40.081Z,0
2017-06-24T04:24:40.123Z,0
2017-06-24T04:25:39.844Z,0
2017-06-24T04:26:40.169Z,0
2017-06-24T04:27:39.581Z,0
2017-06-24T04:28:40.232Z,0
2017-06-24T04:29:39.945Z,0
2017-06-24T04:30:39.967Z,0
2017-06-24T04:31:39.960Z,0
2017-06-24T04:32:40.355Z,5
2017-06-24T04:33:39.760Z,5
2017-06-24T04:34:39.810Z,5
2017-06-24T04:35:40.122Z,5
2017-06-24T04:36:40.415Z,5
2017-06-24T04:37:40.176Z,5
2017-06-24T04:38:39.909Z,5
2017-06-24T04:39:39.944Z,5
2017-06-24T04:40:39.967Z,5
2017-06-24T04:41:40.248Z,5
2017-06-24T04:42:40.328Z,5
2017-06-24T04:43:40.061Z,5
2017-06-24T04:44:40.402Z,5
2017-06-24T04:45:40.736Z,5
2017-06-24T04:46:40.759Z,5
2017-06-24T04:47:40.540Z,5
2017-06-24T04:48:40.218Z,5
2017-06-24T04:49:40.871Z,5
2017-06-24T04:50:40.259Z,5
2017-06-24T04:51:41.172Z,5
2017-06-24T04:52:40.932Z,5
2017-06-24T04:53:40.670Z,5
2017-06-24T04:54:40.393Z,5
2017-06-24T04:55:41.039Z,5
2017-06-24T04:56:41.012Z,5
2017-06-24T04:57:41.112Z,5
2017-06-24T04:58:41.138Z,5
2017-06-24T04:59:40.843Z,5
2017-06-24T05:00:41.186Z,5
2017-06-24T05:01:41.164Z,5
2017-06-24T05:02:40.949Z,5
2017-06-24T05:03:40.977Z,5
2017-06-24T05:04:40.686Z,5
2017-06-24T05:05:41.015Z,5
2017-06-24T05:06:41.655Z,5
2017-06-24T05:07:41.391Z,5
2017-06-24T05:08:41.102Z,5
2017-06-24T05:09:40.842Z,5
2017-06-24T05:10:40.859Z,5
2017-06-24T05:11:41.212Z,10
2017-06-24T05:12:40.549Z,10
2017-06-24T05:13:40.951Z,5
2017-06-24T05:14:41.610Z,10
2017-06-24T05:15:41.319Z,10
2017-06-24T05:16:41.668Z,5
2017-06-24T05:17:41.641Z,5
2017-06-24T05:18:41.097Z,5
2017-06-24T05:19:41.742Z,5
2017-06-24T05:20:40.856Z,5
2017-06-24T05:21:41.817Z,5
2017-06-24T05:22:42.114Z,5
2017-06-24T05:23:41.565Z,5
2017-06-24T05:24:41.906Z,5
2017-06-24T05:25:41.312Z,5
2017-06-24T05:26:41.652Z,5
2017-06-24T05:27:42.301Z,5
2017-06-24T05:28:41.402Z,5
2017-06-24T05:29:42.056Z,10
2017-06-24T05:30:41.784Z,10
2017-06-24T05:31:41.800Z,10
2017-06-24T05:32:42.134Z,10
2017-06-24T05:33:42.177Z,10
2017-06-24T05:34:42.208Z,10
2017-06-24T05:35:41.931Z,10
2017-06-24T05:36:41.949Z,10
2017-06-24T05:37:42.282Z,10
2017-06-24T05:38:42.002Z,10
2017-06-24T05:39:42.360Z,10
2017-06-24T05:40:42.064Z,10
2017-06-24T05:41:42.418Z,10
2017-06-24T05:42:42.698Z,10
2017-06-24T05:43:42.170Z,10
2017-06-24T05:44:41.875Z,10
2017-06-24T05:45:42.523Z,10
2017-06-24T05:46:42.565Z,10
2017-06-24T05:47:42.537Z,10
2017-06-24T05:48:42.307Z,10
2017-06-24T05:49:41.712Z,15
2017-06-24T05:50:42.053Z,10
2017-06-24T05:51:41.778Z,15
2017-06-24T05:52:42.730Z,15
2017-06-24T05:53:42.454Z,15
2017-06-24T05:54:42.807Z,15
2017-06-24T05:55:42.201Z,15
2017-06-24T05:56:42.860Z,10
2017-06-24T05:57:42.833Z,10
2017-06-24T05:58:42.611Z,10
2017-06-24T05:59:42.011Z,10
2017-06-24T06:00:42.360Z,10
2017-06-24T06:01:43.027Z,10
2017-06-24T06:02:42.406Z,10
2017-06-24T06:03:42.751Z,10
2017-06-24T06:04:42.791Z,10
2017-06-24T06:05:43.137Z,10
2017-06-24T06:06:42.861Z,10
2017-06-24T06:07:42.814Z,10
2017-06-24T06:08:43.206Z,10
2017-06-24T06:09:43.254Z,10
2017-06-24T06:10:42.970Z,10
2017-06-24T06:11:43.313Z,10
2017-06-24T06:12:43.594Z,10
2017-06-24T06:13:43.059Z,10
2017-06-24T06:14:43.404Z,10
2017-06-24T06:15:43.113Z,10
2017-06-24T06:16:43.150Z,10
2017-06-24T06:17:43.438Z,10
2017-06-24T06:18:43.517Z,10
2017-06-24T06:19:43.237Z,15
2017-06-24T06:20:42.955Z,10
2017-06-24T06:21:42.675Z,10
2017-06-24T06:22:43.890Z,10
2017-06-24T06:23:43.672Z,10
2017-06-24T06:24:43.389Z,10
2017-06-24T06:25:43.725Z,10
2017-06-24T06:26:43.439Z,10
2017-06-24T06:27:43.770Z,10
2017-06-24T06:28:43.821Z,15
2017-06-24T06:29:43.848Z,15
2017-06-24T06:30:43.877Z,15
2017-06-24T06:31:43.601Z,10
2017-06-24T06:32:43.921Z,10
2017-06-24T06:33:43.655Z,10
2017-06-24T06:34:43.988Z,15
2017-06-24T06:35:43.430Z,15
2017-06-24T06:36:43.746Z,10
2017-06-24T06:37:43.723Z,10
2017-06-24T06:38:43.792Z,10
2017-06-24T06:39:43.527Z,15
2017-06-24T06:40:43.869Z,10
2017-06-24T06:41:44.190Z,15
2017-06-24T06:42:43.851Z,10
2017-06-24T06:43:43.947Z,15
2017-06-24T06:44:43.672Z,15
2017-06-24T06:45:43.693Z,15
2017-06-24T06:46:44.030Z,15
2017-06-24T06:47:44.630Z,15
2017-06-24T06:48:43.468Z,10
2017-06-24T06:49:44.430Z,10
2017-06-24T06:50:44.457Z,10
2017-06-24T06:51:44.496Z,10
2017-06-24T06:52:43.909Z,15
2017-06-24T06:53:44.189Z,10
2017-06-24T06:54:43.969Z,15
2017-06-24T06:55:44.618Z,15
2017-06-24T06:56:44.331Z,15
2017-06-24T06:57:44.043Z,15
2017-06-24T06:58:44.381Z,10
2017-06-24T06:59:44.424Z,10
2017-06-24T07:00:44.777Z,10
2017-06-24T07:01:44.799Z,15
2017-06-24T07:02:44.191Z,15
2017-06-24T07:03:44.799Z,15
2017-06-24T07:04:43.953Z,15
2017-06-24T07:05:44.606Z,15
2017-06-24T07:06:44.635Z,20
2017-06-24T07:07:44.347Z,15
2017-06-24T07:08:44.984Z,10
2017-06-24T07:09:44.106Z,10
2017-06-24T07:10:44.755Z,15
2017-06-24T07:11:44.161Z,15
2017-06-24T07:12:44.808Z,15
2017-06-24T07:13:45.139Z,15
2017-06-24T07:14:44.253Z,15
2017-06-24T07:15:45.213Z,15
2017-06-24T07:16:44.939Z,15
2017-06-24T07:17:44.976Z,15
2017-06-24T07:18:45.243Z,15
2017-06-24T07:19:45.025Z,15
2017-06-24T07:20:45.349Z,15
2017-06-24T07:21:45.399Z,15
2017-06-24T07:22:45.103Z,15
2017-06-24T07:23:45.392Z,20
2017-06-24T07:24:45.479Z,15
2017-06-24T07:25:45.514Z,15
2017-06-24T07:26:45.547Z,15
2017-06-24T07:27:45.582Z,15
2017-06-24T07:28:45.905Z,15
2017-06-24T07:29:45.626Z,15
2017-06-24T07:30:45.346Z,15
2017-06-24T07:31:45.678Z,15
2017-06-24T07:32:45.411Z,15
2017-06-24T07:33:45.692Z,15
2017-06-24T07:34:45.789Z,15
2017-06-24T07:35:45.811Z,15
2017-06-24T07:36:45.528Z,20
2017-06-24T07:37:45.909Z,15
2017-06-24T07:38:46.162Z,15
2017-06-24T07:39:45.298Z,20
2017-06-24T07:40:45.962Z,25
2017-06-24T07:41:45.985Z,25
2017-06-24T07:42:45.709Z,25
2017-06-24T07:43:46.073Z,25
2017-06-24T07:44:45.774Z,25
2017-06-24T07:45:45.179Z,20
2017-06-24T07:46:46.135Z,20
2017-06-24T07:47:46.145Z,15
2017-06-24T07:48:46.444Z,15
2017-06-24T07:49:46.225Z,15
2017-06-24T07:50:45.967Z,15
2017-06-24T07:51:46.384Z,15
2017-06-24T07:52:45.693Z,15
2017-06-24T07:53:45.981Z,20
2017-06-24T07:54:45.430Z,15
2017-06-24T07:55:46.411Z,20
2017-06-24T07:56:45.809Z,20
2017-06-24T07:57:46.156Z,20
2017-06-24T07:58:46.468Z,15
2017-06-24T07:59:46.214Z,20
2017-06-24T08:00:46.559Z,15
2017-06-24T08:01:46.596Z,15
2017-06-24T08:02:46.297Z,15
2017-06-24T08:03:46.886Z,20
2017-06-24T08:04:46.358Z,20
2017-06-24T08:05:46.402Z,20
2017-06-24T08:06:46.732Z,30
2017-06-24T08:07:46.136Z,30
2017-06-24T08:08:46.774Z,30
2017-06-24T08:09:46.826Z,25
2017-06-24T08:10:46.227Z,20
2017-06-24T08:11:46.881Z,15
2017-06-24T08:12:46.305Z,15
2017-06-24T08:13:47.181Z,25
2017-06-24T08:14:46.974Z,25
2017-06-24T08:15:46.685Z,30
2017-06-24T08:16:47.023Z,15
2017-06-24T08:17:46.433Z,10
2017-06-24T08:18:47.073Z,15
2017-06-24T08:19:47.110Z,30
2017-06-24T08:20:46.847Z,20
2017-06-24T08:21:46.553Z,15
2017-06-24T08:22:46.893Z,15
2017-06-24T08:23:47.246Z,15
2017-06-24T08:24:46.945Z,15
2017-06-24T08:25:47.307Z,20
2017-06-24T08:26:47.024Z,25
2017-06-24T08:27:47.033Z,45
2017-06-24T08:28:47.329Z,25
2017-06-24T08:29:46.792Z,20
2017-06-24T08:30:46.856Z,15
2017-06-24T08:31:47.157Z,25
2017-06-24T08:32:47.191Z,40
2017-06-24T08:33:47.529Z,25
2017-06-24T08:34:47.254Z,15
2017-06-24T08:35:47.285Z,15
2017-06-24T08:36:47.313Z,30
2017-06-24T08:37:47.024Z,30
2017-06-24T08:38:47.361Z,30
2017-06-24T08:39:47.399Z,50
2017-06-24T08:40:47.440Z,50
2017-06-24T08:41:47.468Z,40
2017-06-24T08:42:47.192Z,40
2017-06-24T08:43:48.116Z,45
2017-06-24T08:44:47.246Z,40
2017-06-24T08:45:47.903Z,25
2017-06-24T08:46:47.279Z,30
2017-06-24T08:47:47.945Z,35
2017-06-24T08:48:47.971Z,35
2017-06-24T08:49:47.384Z,45
2017-06-24T08:50:47.715Z,50
2017-06-24T08:51:47.130Z,40
2017-06-24T08:52:47.783Z,30
2017-06-24T08:53:48.422Z,45
2017-06-24T08:54:48.155Z,50
2017-06-24T08:55:47.905Z,35
2017-06-24T08:56:47.889Z,45
2017-06-24T08:57:47.923Z,50
2017-06-24T08:58:47.954Z,45
2017-06-24T08:59:47.688Z,60
2017-06-24T09:00:48.024Z,60
2017-06-24T09:01:48.365Z,45
2017-06-24T09:02:48.107Z,35
2017-06-24T09:03:48.680Z,45
2017-06-24T09:04:48.145Z,65
2017-06-24T09:05:48.498Z,55
2017-06-24T09:06:48.209Z,60
2017-06-24T09:07:47.922Z,55
2017-06-24T09:08:48.564Z,60
2017-06-24T09:09:48.898Z,55
2017-06-24T09:10:48.311Z,35
2017-06-24T09:11:48.653Z,45
2017-06-24T09:12:48.075Z,55
2017-06-24T09:13:48.406Z,60
2017-06-24T09:14:49.013Z,65
2017-06-24T09:15:48.157Z,45
2017-06-24T09:16:48.198Z,40
2017-06-24T09:17:47.914Z,45
2017-06-24T09:18:48.253Z,35
2017-06-24T09:19:49.221Z,35
2017-06-24T09:20:48.318Z,45
2017-06-24T09:21:48.957Z,45
2017-06-24T09:22:48.370Z,50
2017-06-24T09:23:49.036Z,45
2017-06-24T09:24:49.311Z,55
2017-06-24T09:25:48.785Z,50
2017-06-24T09:26:49.132Z,55
2017-06-24T09:27:48.842Z,55
2017-06-24T09:28:49.176Z,40
2017-06-24T09:29:49.463Z,45
2017-06-24T09:30:48.922Z,30
2017-06-24T09:31:48.957Z,30
2017-06-24T09:32:49.294Z,40
2017-06-24T09:33:49.020Z,40
2017-06-24T09:34:49.609Z,50
2017-06-24T09:35:49.374Z,35
2017-06-24T09:36:49.403Z,40
2017-06-24T09:37:49.134Z,35
2017-06-24T09:38:48.544Z,35
2017-06-24T09:39:49.189Z,40
2017-06-24T09:40:49.214Z,35
2017-06-24T09:41:49.262Z,50
2017-06-24T09:42:48.970Z,65
2017-06-24T09:43:49.005Z,40
2017-06-24T09:44:49.616Z,25
2017-06-24T09:45:48.749Z,40
2017-06-24T09:46:49.411Z,40
2017-06-24T09:47:48.812Z,60
2017-06-24T09:48:49.472Z,70
2017-06-24T09:49:49.441Z,60
2017-06-24T09:50:49.528Z,55
2017-06-24T09:51:49.879Z,45
2017-06-24T09:52:49.587Z,35
2017-06-24T09:53:49.624Z,30
2017-06-24T09:54:50.266Z,40
2017-06-24T09:55:49.681Z,35
2017-06-24T09:56:49.386Z,40
2017-06-24T09:57:50.061Z,30
2017-06-24T09:58:50.088Z,45
2017-06-24T09:59:50.049Z,45
2017-06-24T10:00:50.153Z,60
2017-06-24T10:01:49.863Z,45
2017-06-24T10:02:50.200Z,50
2017-06-24T10:03:50.244Z,40
2017-06-24T10:04:50.509Z,45
2017-06-24T10:05:50.298Z,60
2017-06-24T10:06:50.007Z,70
2017-06-24T10:07:50.348Z,50
2017-06-24T10:08:49.752Z,50
2017-06-24T10:09:50.670Z,40
2017-06-24T10:10:50.455Z,75
2017-06-24T10:11:50.483Z,70
2017-06-24T10:12:49.890Z,50
2017-06-24T10:13:49.913Z,70
2017-06-24T10:14:50.258Z,65
2017-06-24T10:15:50.599Z,60
2017-06-24T10:16:50.311Z,50
2017-06-24T10:17:50.337Z,35
2017-06-24T10:18:50.687Z,40
2017-06-24T10:19:50.654Z,45
2017-06-24T10:20:50.423Z,45
2017-06-24T10:21:50.468Z,35
2017-06-24T10:22:50.816Z,45
2017-06-24T10:23:50.521Z,45
2017-06-24T10:24:50.797Z,40
2017-06-24T10:25:50.287Z,40
2017-06-24T10:26:50.619Z,40
2017-06-24T10:27:50.656Z,40
2017-06-24T10:28:50.981Z,45
2017-06-24T10:29:50.954Z,55
2017-06-24T10:30:50.732Z,50
2017-06-24T10:31:50.778Z,40
2017-06-24T10:32:50.797Z,40
2017-06-24T10:33:50.828Z,45
2017-06-24T10:34:50.846Z,60
2017-06-24T10:35:50.891Z,65
2017-06-24T10:36:50.922Z,60
2017-06-24T10:37:51.266Z,75
2017-06-24T10:38:50.674Z,70
2017-06-24T10:39:51.295Z,65
2017-06-24T10:40:51.350Z,70
2017-06-24T10:41:51.388Z,65
2017-06-24T10:42:51.413Z,70
2017-06-24T10:43:51.122Z,60
2017-06-24T10:44:51.113Z,40
2017-06-24T10:45:51.188Z,40
2017-06-24T10:46:51.537Z,40
2017-06-24T10:47:51.568Z,40
2017-06-24T10:48:50.969Z,45
2017-06-24T10:49:51.870Z,50
2017-06-24T10:50:51.664Z,60
2017-06-24T10:51:51.688Z,30
2017-06-24T10:52:51.100Z,60
2017-06-24T10:53:51.742Z,55
2017-06-24T10:54:51.454Z,50
2017-06-24T10:55:51.191Z,70
2017-06-24T10:56:51.524Z,45
2017-06-24T10:57:51.599Z,45
2017-06-24T10:58:51.280Z,40
2017-06-24T10:59:51.862Z,35
2017-06-24T11:00:51.647Z,50
2017-06-24T11:01:51.673Z,65
2017-06-24T11:02:51.381Z,65
2017-06-24T11:03:51.422Z,65
2017-06-24T11:04:52.326Z,75
2017-06-24T11:05:52.113Z,55
2017-06-24T11:06:51.841Z,85
2017-06-24T11:07:51.573Z,65
2017-06-24T11:08:52.198Z,55
2017-06-24T11:09:52.219Z,60
2017-06-24T11:10:52.263Z,50
2017-06-24T11:11:51.988Z,65
2017-06-24T11:12:52.322Z,65
2017-06-24T11:13:52.047Z,80
2017-06-24T11:14:52.318Z,50
2017-06-24T11:15:52.106Z,50
2017-06-24T11:16:52.141Z,65
2017-06-24T11:17:51.870Z,80
2017-06-24T11:18:51.886Z,60
2017-06-24T11:19:52.522Z,75
2017-06-24T11:20:52.259Z,85
2017-06-24T11:21:52.601Z,110
2017-06-24T11:22:52.621Z,55
2017-06-24T11:23:52.650Z,65
2017-06-24T11:24:52.626Z,100
2017-06-24T11:25:52.400Z,95
2017-06-24T11:26:52.749Z,80
2017-06-24T11:27:52.786Z,115
2017-06-24T11:28:52.811Z,80
2017-06-24T11:29:52.519Z,145
2017-06-24T11:30:53.117Z,60
2017-06-24T11:31:52.910Z,75
2017-06-24T11:32:52.625Z,90
2017-06-24T11:33:52.643Z,415
2017-06-24T11:34:52.676Z,415
2017-06-24T11:35:52.640Z,105
2017-06-24T11:36:52.421Z,110
2017-06-24T11:37:52.786Z,205
2017-06-24T11:38:53.111Z,100
2017-06-24T11:39:52.516Z,185
2017-06-24T11:40:53.165Z,450
2017-06-24T11:41:52.598Z,60
2017-06-24T11:42:53.239Z,75
2017-06-24T11:43:52.331Z,120
2017-06-24T11:44:53.276Z,515
2017-06-24T11:45:53.649Z,665
2017-06-24T11:46:53.357Z,700
2017-06-24T11:47:52.770Z,85
2017-06-24T11:48:53.111Z,95
2017-06-24T11:49:53.144Z,95
2017-06-24T11:50:53.126Z,805
2017-06-24T11:51:52.581Z,60
2017-06-24T11:52:53.545Z,75
2017-06-24T11:53:53.263Z,290
2017-06-24T11:54:52.984Z,1040
2017-06-24T11:55:53.884Z,1190
2017-06-24T11:56:53.366Z,65
2017-06-24T11:57:53.702Z,665
2017-06-24T11:58:53.755Z,215
2017-06-24T11:59:53.776Z,1010
2017-06-24T12:00:53.165Z,960
2017-06-24T12:01:52.896Z,370
2017-06-24T12:02:53.547Z,885
2017-06-24T12:03:53.908Z,665
2017-06-24T12:04:53.619Z,645
2017-06-24T12:05:53.945Z,65
2017-06-24T12:06:53.679Z,640
2017-06-24T12:07:53.708Z,640
2017-06-24T12:08:53.748Z,585
2017-06-24T12:09:53.794Z,620
2017-06-24T12:10:54.362Z,695
2017-06-24T12:11:54.149Z,710
2017-06-24T12:12:54.194Z,570
2017-06-24T12:13:53.596Z,700
2017-06-24T12:14:54.268Z,740
2017-06-24T12:15:54.218Z,135
2017-06-24T12:16:54.310Z,805
2017-06-24T12:17:54.051Z,770
2017-06-24T12:18:54.072Z,660
2017-06-24T12:19:53.800Z,565
2017-06-24T12:20:54.708Z,605
2017-06-24T12:21:54.187Z,760
2017-06-24T12:22:54.204Z,750
2017-06-24T12:23:54.292Z,550
2017-06-24T12:24:53.668Z,510
2017-06-24T12:25:54.935Z,690
2017-06-24T12:26:54.043Z,900
2017-06-24T12:27:54.383Z,875
2017-06-24T12:28:54.124Z,795
2017-06-24T12:29:54.456Z,735
2017-06-24T12:30:54.791Z,860
2017-06-24T12:31:54.208Z,785
2017-06-24T12:32:54.597Z,845
2017-06-24T12:33:54.896Z,640
2017-06-24T12:34:54.634Z,940
2017-06-24T12:35:54.910Z,1010
2017-06-24T12:36:54.996Z,130
2017-06-24T12:37:55.035Z,340
2017-06-24T12:38:54.458Z,1015
2017-06-24T12:39:54.794Z,215
2017-06-24T12:40:55.395Z,1165
2017-06-24T12:41:55.184Z,1090
2017-06-24T12:42:54.902Z,1045
2017-06-24T12:43:54.940Z,950
2017-06-24T12:44:55.275Z,935
2017-06-24T12:45:55.257Z,1005
2017-06-24T12:46:54.745Z,1080
2017-06-24T12:47:54.787Z,1135
2017-06-24T12:48:55.114Z,1095
2017-06-24T12:49:55.453Z,95
2017-06-24T12:50:55.431Z,170
2017-06-24T12:51:55.532Z,1105
2017-06-24T12:52:55.564Z,1090
2017-06-24T12:53:55.292Z,995
2017-06-24T12:54:55.627Z,1160
2017-06-24T12:55:55.343Z,1145
2017-06-24T12:56:55.730Z,1065
2017-06-24T12:57:55.179Z,1060
2017-06-24T12:58:55.782Z,1040
2017-06-24T12:59:55.798Z,1085
2017-06-24T13:00:55.831Z,1115
2017-06-24T13:01:55.600Z,1075
2017-06-24T13:02:55.916Z,1050
2017-06-24T13:03:55.638Z,1025
2017-06-24T13:04:55.367Z,590
2017-06-24T13:05:55.970Z,735
2017-06-24T13:06:56.057Z,515
2017-06-24T13:07:55.462Z,355
2017-06-24T13:08:56.138Z,305
2017-06-24T13:09:56.163Z,285
2017-06-24T13:10:55.842Z,270
2017-06-24T13:11:56.237Z,260
2017-06-24T13:12:56.265Z,260
2017-06-24T13:13:56.314Z,260
2017-06-24T13:14:55.402Z,270
2017-06-24T13:15:56.679Z,265
2017-06-24T13:16:55.793Z,235
2017-06-24T13:17:55.934Z,230
2017-06-24T13:18:55.910Z,225
2017-06-24T13:19:56.202Z,220
2017-06-24T13:20:56.180Z,215
2017-06-24T13:21:56.274Z,210
2017-06-24T13:22:56.325Z,210
2017-06-24T13:23:56.654Z,205
2017-06-24T13:24:56.686Z,220
2017-06-24T13:25:56.726Z,210
2017-06-24T13:26:56.758Z,170
2017-06-24T13:27:56.177Z,215
2017-06-24T13:28:56.823Z,195
2017-06-24T13:29:56.555Z,185
2017-06-24T13:30:56.520Z,180
2017-06-24T13:31:56.633Z,155
2017-06-24T13:32:56.347Z,170
2017-06-24T13:33:56.704Z,170
2017-06-24T13:34:57.052Z,195
2017-06-24T13:35:57.068Z,170
2017-06-24T13:36:56.791Z,155
2017-06-24T13:37:56.842Z,165
2017-06-24T13:38:56.559Z,155
2017-06-24T13:39:56.605Z,160
2017-06-24T13:40:57.298Z,150
2017-06-24T13:41:56.974Z,120
2017-06-24T13:42:57.007Z,65
2017-06-24T13:43:56.740Z,185
2017-06-24T13:44:57.396Z,165
2017-06-24T13:45:57.368Z,160
2017-06-24T13:46:57.462Z,190
2017-06-24T13:47:57.197Z,75
2017-06-24T13:48:57.225Z,80
2017-06-24T13:49:56.947Z,180
2017-06-24T13:50:57.893Z,140
2017-06-24T13:51:57.634Z,135
2017-06-24T13:52:57.363Z,135
2017-06-24T13:53:57.071Z,135
2017-06-24T13:54:57.741Z,135
2017-06-24T13:55:57.718Z,135
2017-06-24T13:56:57.506Z,130
2017-06-24T13:57:57.535Z,125
2017-06-24T13:58:57.568Z,125
2017-06-24T13:59:57.595Z,120
2017-06-24T14:00:58.194Z,120
2017-06-24T14:01:57.986Z,120
2017-06-24T14:02:57.693Z,120
2017-06-24T14:03:57.754Z,120
2017-06-24T14:04:58.080Z,120
2017-06-24T14:05:58.368Z,35
2017-06-24T14:06:57.854Z,135
2017-06-24T14:07:57.884Z,135
2017-06-24T14:08:57.902Z,125
2017-06-24T14:09:57.641Z,120
2017-06-24T14:10:58.545Z,75
2017-06-24T14:11:58.002Z,115
2017-06-24T14:12:58.042Z,85
2017-06-24T14:13:58.385Z,140
2017-06-24T14:14:58.112Z,130
2017-06-24T14:15:58.706Z,105
2017-06-24T14:16:58.186Z,105
2017-06-24T14:17:58.534Z,105
2017-06-24T14:18:58.551Z,100
2017-06-24T14:19:58.285Z,100
2017-06-24T14:20:58.565Z,100